< < Back
Terminal Aerodrome Forecast


Current Version              Previous Versions:   1  2  3  4  5  6  7  8  9  

Terminal Aerodrome Forecast

535
FTAK31 PAJN 032322
TAFAGS
TAF
PAGS 032322Z 0400/0424 32011G18KT P6SM SCT150
     FM040400 VRB03KT P6SM SCT100 SCT200
      AMD LTD TO CLD VIS AND WIND=



Latest METAR

443
SAUS70 KWBC 040300 RRF
MTRAGS
METAR KAGS 040253Z 00000KT 10SM CLR 23/23 A2992 RMK AO2 SLP131 T02330228
53014


USA.gov is the U.S. government's official web portal to all federal, state and local government web resources and services.